createdAt,value
2023-02-03T00:02:49.618Z,20.97
2023-02-03T00:07:52.661Z,20.95
2023-02-03T00:12:56.213Z,20.92
2023-02-03T00:18:00.437Z,20.96
2023-02-03T00:23:07.039Z,20.97
2023-02-03T00:28:09.928Z,20.99
2023-02-03T00:33:14.114Z,20.99
2023-02-03T00:38:17.046Z,20.97
2023-02-03T00:43:19.964Z,20.94
2023-02-03T00:48:24.092Z,20.92
2023-02-03T00:53:26.883Z,20.93
2023-02-03T00:58:29.801Z,20.94
2023-02-03T01:03:34.352Z,20.96
2023-02-03T01:08:37.146Z,20.97
2023-02-03T01:13:40.517Z,20.94
2023-02-03T01:18:44.948Z,20.91
2023-02-03T01:23:47.830Z,20.87
2023-02-03T01:28:54.720Z,20.89
2023-02-03T01:33:59.073Z,20.92
2023-02-03T01:39:02.354Z,20.94
2023-02-03T01:44:38.180Z,20.96
2023-02-03T01:49:43.927Z,20.92
2023-02-03T01:54:49.212Z,20.89
2023-02-03T01:59:52.823Z,20.85
2023-02-03T02:05:03.172Z,20.87
2023-02-03T02:10:07.284Z,20.89
2023-02-03T02:15:10.872Z,20.91
2023-02-03T02:20:56.774Z,20.92
2023-02-03T02:26:16.297Z,20.95
2023-02-03T02:31:50.549Z,20.91
2023-02-03T02:37:00.715Z,20.88
2023-02-03T02:42:08.414Z,20.85
2023-02-03T02:47:19.078Z,20.88
2023-02-03T02:52:22.894Z,20.89
2023-02-03T02:57:27.714Z,20.92
2023-02-03T03:02:34.992Z,20.93
2023-02-03T03:07:41.932Z,20.94
2023-02-03T03:12:48.177Z,20.93
2023-02-03T03:17:56.101Z,20.89
2023-02-03T03:23:01.202Z,20.84
2023-02-03T03:28:06.981Z,20.87
2023-02-03T03:33:11.501Z,20.88
2023-02-03T03:38:19.316Z,20.90
2023-02-03T03:43:24.560Z,20.92
2023-02-03T03:48:30.083Z,20.88
2023-02-03T03:53:35.816Z,20.83
2023-02-03T03:58:40.446Z,20.81
2023-02-03T04:03:47.493Z,20.85
2023-02-03T04:08:50.331Z,20.88
2023-02-03T04:13:53.109Z,20.91
2023-02-03T04:18:58.052Z,20.91
2023-02-03T04:24:00.954Z,20.89
2023-02-03T04:29:03.900Z,20.85
2023-02-03T04:34:08.262Z,20.80
2023-02-03T04:39:11.352Z,20.80
2023-02-03T04:44:14.144Z,20.83
2023-02-03T04:49:18.616Z,20.88
2023-02-03T04:54:21.498Z,20.89
2023-02-03T04:59:24.329Z,20.89
2023-02-03T05:04:28.564Z,20.87
2023-02-03T05:09:31.397Z,20.85
2023-02-03T05:14:34.400Z,20.82
2023-02-03T05:19:38.599Z,20.83
2023-02-03T05:24:41.390Z,20.86
2023-02-03T05:29:44.234Z,20.91
2023-02-03T05:34:48.454Z,20.91
2023-02-03T05:39:51.328Z,20.89
2023-02-03T05:44:54.117Z,20.84
2023-02-03T05:49:58.522Z,20.81
2023-02-03T05:55:01.348Z,20.82
2023-02-03T06:00:04.790Z,20.83
2023-02-03T06:05:09.570Z,20.88
2023-02-03T06:10:12.422Z,20.85
2023-02-03T06:15:15.504Z,20.86
2023-02-03T06:20:21.165Z,20.85
2023-02-03T06:25:24.246Z,20.82
2023-02-03T06:30:27.442Z,20.80
2023-02-03T06:35:32.093Z,20.81
2023-02-03T06:40:35.057Z,20.83
2023-02-03T06:45:37.880Z,20.85
2023-02-03T06:50:42.314Z,20.86
2023-02-03T06:55:45.151Z,20.88
2023-02-03T07:00:48.012Z,20.81
2023-02-03T07:05:52.150Z,20.80
2023-02-03T07:10:55.270Z,20.80
2023-02-03T07:15:58.221Z,20.83
2023-02-03T07:21:05.632Z,20.88
2023-02-03T07:26:09.528Z,20.90
2023-02-03T07:31:12.561Z,20.86
2023-02-03T07:36:16.805Z,20.83
2023-02-03T07:41:19.652Z,20.84
2023-02-03T07:46:22.470Z,20.85
2023-02-03T07:51:26.757Z,20.91
2023-02-03T07:56:30.617Z,20.93
2023-02-03T08:01:34.165Z,20.94
2023-02-03T08:06:38.335Z,20.97
2023-02-03T08:11:41.182Z,20.94
2023-02-03T08:16:44.067Z,20.91
2023-02-03T08:21:48.223Z,20.87
2023-02-03T08:26:52.893Z,20.87
2023-02-03T08:31:56.262Z,20.90
2023-02-03T08:37:00.750Z,20.93
2023-02-03T08:42:04.022Z,21.02
2023-02-03T08:47:07.973Z,21.08
2023-02-03T08:52:13.789Z,21.11
2023-02-03T08:57:17.048Z,21.10
2023-02-03T09:02:20.724Z,21.09
2023-02-03T09:07:24.942Z,21.07
2023-02-03T09:12:27.743Z,21.09
2023-02-03T09:17:30.592Z,21.11
2023-02-03T09:22:34.718Z,21.11
2023-02-03T09:27:37.731Z,21.16
2023-02-03T09:32:40.586Z,21.21
2023-02-03T09:37:44.752Z,21.22
2023-02-03T09:43:03.282Z,21.21
2023-02-03T09:48:10.386Z,21.23
2023-02-03T09:53:24.892Z,21.20
2023-02-03T09:58:30.385Z,21.23
2023-02-03T10:03:37.719Z,21.24
2023-02-03T10:08:53.419Z,21.27
2023-02-03T10:14:08.672Z,21.32
2023-02-03T10:19:14.319Z,21.32
2023-02-03T10:24:21.457Z,21.32
2023-02-03T10:29:28.659Z,21.32
2023-02-03T10:34:31.511Z,21.35
2023-02-03T10:39:38.844Z,21.34
2023-02-03T10:44:43.825Z,21.36
2023-02-03T10:49:46.690Z,21.41
2023-02-03T10:54:50.879Z,21.41
2023-02-03T11:00:05.519Z,21.41
2023-02-03T11:05:21.918Z,21.43
2023-02-03T11:10:34.140Z,21.41
2023-02-03T11:15:37.070Z,21.41
2023-02-03T11:20:39.911Z,21.44
2023-02-03T11:25:44.205Z,21.48
2023-02-03T11:30:47.238Z,21.49
2023-02-03T11:35:56.459Z,21.51
2023-02-03T11:41:03.854Z,21.51
2023-02-03T11:46:08.845Z,21.51
2023-02-03T11:51:19.552Z,21.48
2023-02-03T11:56:33.433Z,21.51
2023-02-03T12:02:03.422Z,21.52
2023-02-03T12:07:32.643Z,21.56
2023-02-03T12:12:46.774Z,21.59
2023-02-03T12:18:10.457Z,21.60
2023-02-03T12:23:23.902Z,21.60
2023-02-03T12:28:46.079Z,21.58
2023-02-03T12:33:54.632Z,21.59
2023-02-03T12:39:00.158Z,21.58
2023-02-03T12:44:06.426Z,21.60
2023-02-03T12:49:16.431Z,21.63
2023-02-03T12:54:33.754Z,21.65
2023-02-03T12:59:39.242Z,21.65
2023-02-03T13:04:45.712Z,21.65
2023-02-03T13:09:51.160Z,21.65
2023-02-03T13:14:59.682Z,21.67
2023-02-03T13:20:06.324Z,21.68
2023-02-03T13:25:18.324Z,21.70
2023-02-03T13:30:49.496Z,21.72
2023-02-03T13:36:01.699Z,21.72
2023-02-03T13:41:09.002Z,21.73
2023-02-03T13:46:23.676Z,21.74
2023-02-03T13:51:34.042Z,21.76
2023-02-03T13:56:37.181Z,21.79
2023-02-03T14:01:41.666Z,21.78
2023-02-03T14:07:02.811Z,21.78
2023-02-03T14:12:21.383Z,21.78
2023-02-03T14:18:03.968Z,21.83
2023-02-03T14:23:15.765Z,21.86
2023-02-03T14:28:20.614Z,21.89
2023-02-03T14:33:47.220Z,21.94
2023-02-03T14:38:51.479Z,21.92
2023-02-03T14:44:00.711Z,21.96
2023-02-03T14:49:28.352Z,21.93
2023-02-03T14:54:45.140Z,21.91
2023-02-03T14:59:49.802Z,21.93
2023-02-03T15:04:53.337Z,21.93
2023-02-03T15:09:57.578Z,21.96
2023-02-03T15:15:14.163Z,21.94
2023-02-03T15:20:26.410Z,21.97
2023-02-03T15:25:32.919Z,21.96
2023-02-03T15:30:35.880Z,21.97
2023-02-03T15:35:40.191Z,21.99
2023-02-03T15:40:45.837Z,22.00
2023-02-03T15:45:58.598Z,21.96
2023-02-03T15:51:06.108Z,21.93
2023-02-03T15:56:18.527Z,21.96
2023-02-03T16:01:26.129Z,21.98
2023-02-03T16:06:36.201Z,21.97
2023-02-03T16:11:46.257Z,21.99
2023-02-03T16:17:04.309Z,21.94
2023-02-03T16:22:28.423Z,21.90
2023-02-03T16:27:34.422Z,21.86
2023-02-03T16:32:54.779Z,21.79
2023-02-03T16:38:15.276Z,21.78
2023-02-03T16:43:37.303Z,21.80
2023-02-03T16:48:57.982Z,21.80
2023-02-03T16:54:02.512Z,21.79
2023-02-03T16:59:07.204Z,21.77
2023-02-03T17:04:11.018Z,21.75
2023-02-03T17:09:14.892Z,21.75
2023-02-03T17:14:19.137Z,21.74
2023-02-03T17:19:22.626Z,21.74
2023-02-03T17:24:25.747Z,21.75
2023-02-03T17:29:30.289Z,21.75
2023-02-03T17:34:33.113Z,21.73
2023-02-03T17:55:39.894Z,21.75
2023-02-03T18:00:44.122Z,21.75
2023-02-03T18:05:51.639Z,21.76
2023-02-03T18:10:54.520Z,21.73
2023-02-03T18:16:00.079Z,21.71
2023-02-03T18:21:04.714Z,21.70
2023-02-03T18:26:09.289Z,21.71
2023-02-03T18:31:15.637Z,21.76
2023-02-03T18:36:18.829Z,21.76
2023-02-03T18:41:24.487Z,21.76
2023-02-03T18:46:30.258Z,21.76
2023-02-03T18:51:33.300Z,21.73
2023-02-03T18:56:36.135Z,21.71
2023-02-03T19:01:40.671Z,21.71
2023-02-03T19:06:45.566Z,21.75
2023-02-03T19:11:48.550Z,21.74
2023-02-03T19:16:53.134Z,21.73
2023-02-03T19:21:56.051Z,21.75
2023-02-03T19:26:58.891Z,21.71
2023-02-03T19:32:03.154Z,21.73
2023-02-03T19:37:06.250Z,21.73
2023-02-03T19:42:09.066Z,21.73
2023-02-03T19:47:13.513Z,21.75
2023-02-03T19:52:16.372Z,21.77
2023-02-03T19:57:19.202Z,21.75
2023-02-03T20:02:23.525Z,21.75
2023-02-03T20:07:28.581Z,21.73
2023-02-03T20:12:32.184Z,21.72
2023-02-03T20:17:36.324Z,21.73
2023-02-03T20:22:39.298Z,21.76
2023-02-03T20:27:42.409Z,21.76
2023-02-03T20:32:47.303Z,21.78
2023-02-03T20:37:50.382Z,21.78
2023-02-03T20:42:53.588Z,21.74
2023-02-03T20:47:57.713Z,21.74
2023-02-03T20:53:00.523Z,21.75
2023-02-03T20:58:03.979Z,21.76
2023-02-03T21:03:28.379Z,21.77
2023-02-03T21:08:31.192Z,21.74
2023-02-03T21:13:35.998Z,21.74
2023-02-03T21:18:41.688Z,21.72
2023-02-03T21:23:47.538Z,21.75
2023-02-03T21:28:52.358Z,21.76
2023-02-03T21:33:58.158Z,21.77
2023-02-03T21:39:01.584Z,21.76
2023-02-03T21:44:26.143Z,21.75
2023-02-03T21:49:30.330Z,21.75
2023-02-03T21:54:33.937Z,21.74
2023-02-03T21:59:42.025Z,21.76
2023-02-03T22:04:46.202Z,21.75
2023-02-03T22:09:50.267Z,21.76
2023-02-03T22:14:53.044Z,21.77
2023-02-03T22:19:57.243Z,21.78
2023-02-03T22:25:00.046Z,21.79
2023-02-03T22:30:02.901Z,21.79
2023-02-03T22:35:08.498Z,21.76
2023-02-03T22:40:12.368Z,21.77
2023-02-03T22:45:15.834Z,21.72
2023-02-03T22:50:24.728Z,21.72
2023-02-03T22:55:34.128Z,21.76
2023-02-03T23:00:37.017Z,21.79
2023-02-03T23:05:41.199Z,21.80
2023-02-03T23:10:44.032Z,21.79
2023-02-03T23:15:46.856Z,21.78
2023-02-03T23:20:51.529Z,21.77
2023-02-03T23:25:54.324Z,21.73
2023-02-03T23:30:57.372Z,21.74
2023-02-03T23:36:01.610Z,21.77
2023-02-03T23:41:04.446Z,21.79
2023-02-03T23:46:07.690Z,21.79
2023-02-03T23:51:11.906Z,21.78
2023-02-03T23:56:14.777Z,21.78
